MSC Alexa — 3FPP6 — position and weather

sailwx.info

Track history (hours):
 
Tides and Currents Weather Stations Pressure Air Temp Water Temp Dewpoint Dewpoint Depression Visibility Wind Speed Wind Dir Waves Ship Positions

MSC Alexa

Last reported at 2016-Jul-29 15:33 UTC. Time now 2016-Jul-29 15:55 UTC.
Position N 51°17' E 004°15'.

Length 243 m; draft 8.4 m.

Type: Ship (hazmat cat A). MMSI: 356904000.

Date/timePositionNaut miles runAvg speedWind from/ knotsBaromVisibWave heightAir tempDewpointWater temp
2016-Jul-29 15:33N 51°17' E 004°15'0 0.0
2016-Jul-29 14:32N 51°17' E 004°15'0 0.0
2016-Jul-29 13:32N 51°17' E 004°15'0 0.0
2016-Jul-29 12:31N 51°17' E 004°15'0 0.0
2016-Jul-29 11:28N 51°17' E 004°15'0 0.0
2016-Jul-29 10:31N 51°17' E 004°15'0 0.0
2016-Jul-29 09:33N 51°17' E 004°15'0 0.0
2016-Jul-29 08:33N 51°17' E 004°15'0 0.0
2016-Jul-29 07:26N 51°17' E 004°15'0 0.0
2016-Jul-29 06:32N 51°17' E 004°15'0 0.0
2016-Jul-29 05:31N 51°17' E 004°15'1 1.4
2016-Jul-29 04:34N 51°19' E 004°16'2 2.1
2016-Jul-29 03:33N 51°21' E 004°17'0 0.0
2016-Jul-29 02:33N 51°21' E 004°17'0 0.0
2016-Jul-29 01:33N 51°21' E 004°17'2 2.1
2016-Jul-29 00:33N 51°20' E 004°20'0 0.0
2016-Jul-28 23:32N 51°20' E 004°20'0 0.0
2016-Jul-28 22:23N 51°20' E 004°20'0 0.0
2016-Jul-28 21:25N 51°20' E 004°20'0 0.0
2016-Jul-28 20:31N 51°20' E 004°20'0 0.0
2016-Jul-28 19:30N 51°20' E 004°20'0 0.0
2016-Jul-28 18:30N 51°20' E 004°20'0 0.0
2016-Jul-28 17:33N 51°20' E 004°20'0 0.0
2016-Jul-28 16:32N 51°20' E 004°20'0 0.0
2016-Jul-28 15:32N 51°20' E 004°20'0 0.0
2016-Jul-28 14:28N 51°20' E 004°20'0 0.0
2016-Jul-28 13:31N 51°20' E 004°20'0 0.0
2016-Jul-28 12:30N 51°20' E 004°20'0 0.0
2016-Jul-28 11:33N 51°20' E 004°20'0 0.0
2016-Jul-28 10:33N 51°20' E 004°20'0 0.0
2016-Jul-28 09:32N 51°20' E 004°20'0 0.0
2016-Jul-28 08:33N 51°20' E 004°20'2 2.3
2016-Jul-28 07:33N 51°21' E 004°17'0 0.1
2016-Jul-28 06:33N 51°21' E 004°17'5 5.2
2016-Jul-28 05:33N 51°23' E 004°09'9 9.4
2016-Jul-28 04:33N 51°22' E 003°54'1212.3
2016-Jul-28 03:33N 51°26' E 003°36'9 9.3
2016-Jul-28 02:33N 51°24' E 003°21'1413.9
2016-Jul-28 01:33N 51°23' E 002°59'1212.1
2016-Jul-28 00:33N 51°22' E 002°39'9 8.7
2016-Jul-27 23:33N 51°21' E 002°26'1110.8
2016-Jul-27 22:33N 51°20' E 002°08'1413.9
2016-Jul-27 21:33N 51°29' E 001°51'1413.8
2016-Jul-27 20:33N 51°27' E 001°29'1514.8
2016-Jul-27 19:33N 51°30' E 001°05'1616.5
2016-Jul-27 18:33N 51°30' E 000°39'1211.7
2016-Jul-27 17:34N 51°27' E 000°21'1 0.8
2016-Jul-27 16:34N 51°28' E 000°20'0 0.0
2016-Jul-27 15:34N 51°28' E 000°20'0 0.0
2016-Jul-27 14:34N 51°28' E 000°20'0 0.0
2016-Jul-27 13:34N 51°28' E 000°20'0 0.0
2016-Jul-27 12:34N 51°28' E 000°20'0 0.0
2016-Jul-27 11:33N 51°28' E 000°20'0 0.0
2016-Jul-27 10:34N 51°28' E 000°20'0 0.0
2016-Jul-27 09:34N 51°28' E 000°20'0 0.0
2016-Jul-27 08:34N 51°28' E 000°20'0 0.0
2016-Jul-27 07:34N 51°28' E 000°20'0 0.0
2016-Jul-27 06:34N 51°28' E 000°20'2 1.5
2016-Jul-27 05:34N 51°27' E 000°22'9 8.5
2016-Jul-27 04:33N 51°30' E 000°35'1313.4
2016-Jul-27 03:33N 51°29' E 000°56'1312.7
2016-Jul-27 02:33N 51°29' E 001°17'9 9.4
2016-Jul-27 01:33N 51°25' E 001°30'6 6.3
2016-Jul-27 00:33N 51°29' E 001°38'10 9.7
2016-Jul-26 23:33N 51°28' E 001°54'6 6.4
2016-Jul-26 22:33N 51°24' E 002°01'7 6.8
2016-Jul-26 21:33N 51°18' E 001°56'8 7.6
2016-Jul-26 20:33N 51°12' E 001°48'8 8.2
2016-Jul-26 19:33N 51°06' E 001°40'9 8.9
2016-Jul-26 18:33N 50°59' E 001°31'10 9.8
2016-Jul-26 17:33N 50°50' E 001°25'4811.5
2016-Jul-26 13:25N 50°24' E 000°22'1313.5
2016-Jul-26 12:28N 50°21' E 000°03'1112.2
2016-Jul-26 11:33N 50°25' W 000°14'1513.2
2016-Jul-26 10:26N 50°33' W 000°33'1113.0
2016-Jul-26 09:33N 50°38' W 000°49'1212.3
2016-Jul-26 08:33N 50°45' W 001°05'1211.6
2016-Jul-26 07:33N 50°51' W 001°21'5 4.7
2016-Jul-26 06:27N 50°54' W 001°27'0 0.0
2016-Jul-26 05:32N 50°54' W 001°27'0 0.0
2016-Jul-26 04:29N 50°54' W 001°27'0 0.0
2016-Jul-26 03:31N 50°54' W 001°27'0 0.0
2016-Jul-26 02:28N 50°54' W 001°27'0 0.0
2016-Jul-26 01:31N 50°54' W 001°27'0 0.0
2016-Jul-26 00:30N 50°54' W 001°27'0 0.0
2016-Jul-25 23:33N 50°54' W 001°27'0 0.0
2016-Jul-25 22:32N 50°54' W 001°27'0 0.0
2016-Jul-25 21:32N 50°54' W 001°27'0 0.0
2016-Jul-25 20:28N 50°54' W 001°27'0 0.0
2016-Jul-25 19:31N 50°54' W 001°27'0 0.0
2016-Jul-25 18:31N 50°54' W 001°27'0 0.0
2016-Jul-25 17:33N 50°54' W 001°27'0 0.0
2016-Jul-25 16:33N 50°54' W 001°27'0 0.0
2016-Jul-25 15:32N 50°54' W 001°27'0 0.0
2016-Jul-25 14:29N 50°54' W 001°27'0 0.0
2016-Jul-25 13:22N 50°54' W 001°27'0 0.0
2016-Jul-25 12:28N 50°54' W 001°27'0 0.0
2016-Jul-25 11:31N 50°54' W 001°27'0 0.0
2016-Jul-25 10:18N 50°54' W 001°27'0 0.0
2016-Jul-25 09:30N 50°54' W 001°27'0 0.0
2016-Jul-25 08:29N 50°54' W 001°27'0 0.0
2016-Jul-25 07:29N 50°54' W 001°27'0 0.0
2016-Jul-25 06:31N 50°54' W 001°27'0 0.0
2016-Jul-25 05:28N 50°54' W 001°27'0 0.0
2016-Jul-25 04:33N 50°54' W 001°27'7 6.8
2016-Jul-25 03:33N 50°50' W 001°19'1111.4
2016-Jul-25 02:33N 50°44' W 001°04'9 8.9
2016-Jul-25 01:33N 50°39' W 000°52'7 6.8
2016-Jul-25 00:33N 50°38' W 000°41'1010.0
2016-Jul-24 23:34N 50°35' W 000°26'1110.5
2016-Jul-24 22:33N 50°32' W 000°10'9 9.2
2016-Jul-24 21:34N 50°32' E 000°04'9 9.4
2016-Jul-24 20:33N 50°34' E 000°19'1311.9
2016-Jul-24 19:27N 50°38' E 000°38'1714.1
2016-Jul-24 18:15N 50°47' E 001°01'913.0
2016-Jul-24 17:33N 50°52' E 001°13'1212.4
2016-Jul-24 16:33N 51°01' E 001°27'1111.0
2016-Jul-24 15:33N 51°08' E 001°39'1111.0
2016-Jul-24 14:33N 51°17' E 001°49'1110.9
2016-Jul-24 13:33N 51°26' E 002°01'1111.3
2016-Jul-24 12:33N 51°20' E 002°16'1313.1
2016-Jul-24 11:33N 51°22' E 002°37'1514.9
2016-Jul-24 10:33N 51°24' E 003°01'1615.7
2016-Jul-24 09:33N 51°25' E 003°26'1211.7
2016-Jul-24 08:33N 51°22' E 003°44'1111.3
2016-Jul-24 07:33N 51°24' E 004°02'1010.0
2016-Jul-24 06:34N 51°19' E 004°16'2 2.2
2016-Jul-24 05:33N 51°17' E 004°15'0 0.0
2016-Jul-24 04:33N 51°17' E 004°15'0 0.0
2016-Jul-24 03:32N 51°17' E 004°15'0 0.0
2016-Jul-24 02:32N 51°17' E 004°15'0 0.0
2016-Jul-24 01:32N 51°17' E 004°15'0 0.0
2016-Jul-24 00:28N 51°17' E 004°15'0 0.0
2016-Jul-23 23:28N 51°17' E 004°15'0 0.0
2016-Jul-23 22:33N 51°17' E 004°15'0 0.0
2016-Jul-23 21:33N 51°17' E 004°15'0 0.0
2016-Jul-23 20:32N 51°17' E 004°15'0 0.0
2016-Jul-23 19:32N 51°17' E 004°15'4 3.7
2016-Jul-23 18:34N 51°21' E 004°16'0 0.4
2016-Jul-23 17:28N 51°21' E 004°17'1 1.4
2016-Jul-23 16:33N 51°20' E 004°18'1 0.6
2016-Jul-23 15:32N 51°19' E 004°19'0 0.0
2016-Jul-23 14:32N 51°19' E 004°19'0 0.0
2016-Jul-23 13:31N 51°19' E 004°19'0 0.0
2016-Jul-23 12:31N 51°19' E 004°19'0 0.0
2016-Jul-23 11:33N 51°19' E 004°19'0 0.0
2016-Jul-23 10:33N 51°19' E 004°19'0 0.0
2016-Jul-23 09:33N 51°19' E 004°19'0 0.1
2016-Jul-23 08:30N 51°19' E 004°19'1 0.6
2016-Jul-23 07:31N 51°20' E 004°20'0 0.0
2016-Jul-23 06:28N 51°20' E 004°20'0 0.0
2016-Jul-23 04:33N 51°20' E 004°20'0 0.0
2016-Jul-23 03:29N 51°20' E 004°20'0 0.0
2016-Jul-23 02:29N 51°20' E 004°20'1 1.2
2016-Jul-23 01:33N 51°19' E 004°19'4 4.4
2016-Jul-23 00:32N 51°15' E 004°22'0 0.1
2016-Jul-22 23:32N 51°15' E 004°21'0 0.0
2016-Jul-22 22:32N 51°15' E 004°21'0 0.0
2016-Jul-22 21:31N 51°15' E 004°21'0 0.0
2016-Jul-22 20:31N 51°15' E 004°21'0 0.0
2016-Jul-22 19:33N 51°15' E 004°21'0 0.0
2016-Jul-22 18:30N 51°15' E 004°21'0 0.0
2016-Jul-22 17:33N 51°15' E 004°21'  
Track history (hours):
 
Tides and Currents Weather Stations Pressure Air Temp Water Temp Dewpoint Dewpoint Depression Visibility Wind Speed Wind Dir Waves Ship Positions

MSC Alexa

Last reported at 2016-Jul-29 15:33 UTC. Time now 2016-Jul-29 15:55 UTC.
Position N 51°17' E 004°15'.

Length 243 m; draft 8.4 m.

Type: Ship (hazmat cat A). MMSI: 356904000.

Date/timePositionNaut miles runAvg speedWind from/ knotsBaromVisibWave heightAir tempDewpointWater temp
2016-Jul-29 15:33N 51°17' E 004°15'0 0.0
2016-Jul-29 14:32N 51°17' E 004°15'0 0.0
2016-Jul-29 13:32N 51°17' E 004°15'0 0.0
2016-Jul-29 12:31N 51°17' E 004°15'0 0.0
2016-Jul-29 11:28N 51°17' E 004°15'0 0.0
2016-Jul-29 10:31N 51°17' E 004°15'0 0.0
2016-Jul-29 09:33N 51°17' E 004°15'0 0.0
2016-Jul-29 08:33N 51°17' E 004°15'0 0.0
2016-Jul-29 07:26N 51°17' E 004°15'0 0.0
2016-Jul-29 06:32N 51°17' E 004°15'0 0.0
2016-Jul-29 05:31N 51°17' E 004°15'1 1.4
2016-Jul-29 04:34N 51°19' E 004°16'2 2.1
2016-Jul-29 03:33N 51°21' E 004°17'0 0.0
2016-Jul-29 02:33N 51°21' E 004°17'0 0.0
2016-Jul-29 01:33N 51°21' E 004°17'2 2.1
2016-Jul-29 00:33N 51°20' E 004°20'0 0.0
2016-Jul-28 23:32N 51°20' E 004°20'0 0.0
2016-Jul-28 22:23N 51°20' E 004°20'0 0.0
2016-Jul-28 21:25N 51°20' E 004°20'0 0.0
2016-Jul-28 20:31N 51°20' E 004°20'0 0.0
2016-Jul-28 19:30N 51°20' E 004°20'0 0.0
2016-Jul-28 18:30N 51°20' E 004°20'0 0.0
2016-Jul-28 17:33N 51°20' E 004°20'0 0.0
2016-Jul-28 16:32N 51°20' E 004°20'0 0.0
2016-Jul-28 15:32N 51°20' E 004°20'0 0.0
2016-Jul-28 14:28N 51°20' E 004°20'0 0.0
2016-Jul-28 13:31N 51°20' E 004°20'0 0.0
2016-Jul-28 12:30N 51°20' E 004°20'0 0.0
2016-Jul-28 11:33N 51°20' E 004°20'0 0.0
2016-Jul-28 10:33N 51°20' E 004°20'0 0.0
2016-Jul-28 09:32N 51°20' E 004°20'0 0.0
2016-Jul-28 08:33N 51°20' E 004°20'2 2.3
2016-Jul-28 07:33N 51°21' E 004°17'0 0.1
2016-Jul-28 06:33N 51°21' E 004°17'5 5.2
2016-Jul-28 05:33N 51°23' E 004°09'9 9.4
2016-Jul-28 04:33N 51°22' E 003°54'1212.3
2016-Jul-28 03:33N 51°26' E 003°36'9 9.3
2016-Jul-28 02:33N 51°24' E 003°21'1413.9
2016-Jul-28 01:33N 51°23' E 002°59'1212.1
2016-Jul-28 00:33N 51°22' E 002°39'9 8.7
2016-Jul-27 23:33N 51°21' E 002°26'1110.8
2016-Jul-27 22:33N 51°20' E 002°08'1413.9
2016-Jul-27 21:33N 51°29' E 001°51'1413.8
2016-Jul-27 20:33N 51°27' E 001°29'1514.8
2016-Jul-27 19:33N 51°30' E 001°05'1616.5
2016-Jul-27 18:33N 51°30' E 000°39'1211.7
2016-Jul-27 17:34N 51°27' E 000°21'1 0.8
2016-Jul-27 16:34N 51°28' E 000°20'0 0.0
2016-Jul-27 15:34N 51°28' E 000°20'0 0.0
2016-Jul-27 14:34N 51°28' E 000°20'0 0.0
2016-Jul-27 13:34N 51°28' E 000°20'0 0.0
2016-Jul-27 12:34N 51°28' E 000°20'0 0.0
2016-Jul-27 11:33N 51°28' E 000°20'0 0.0
2016-Jul-27 10:34N 51°28' E 000°20'0 0.0
2016-Jul-27 09:34N 51°28' E 000°20'0 0.0
2016-Jul-27 08:34N 51°28' E 000°20'0 0.0
2016-Jul-27 07:34N 51°28' E 000°20'0 0.0
2016-Jul-27 06:34N 51°28' E 000°20'2 1.5
2016-Jul-27 05:34N 51°27' E 000°22'9 8.5
2016-Jul-27 04:33N 51°30' E 000°35'1313.4
2016-Jul-27 03:33N 51°29' E 000°56'1312.7
2016-Jul-27 02:33N 51°29' E 001°17'9 9.4
2016-Jul-27 01:33N 51°25' E 001°30'6 6.3
2016-Jul-27 00:33N 51°29' E 001°38'10 9.7
2016-Jul-26 23:33N 51°28' E 001°54'6 6.4
2016-Jul-26 22:33N 51°24' E 002°01'7 6.8
2016-Jul-26 21:33N 51°18' E 001°56'8 7.6
2016-Jul-26 20:33N 51°12' E 001°48'8 8.2
2016-Jul-26 19:33N 51°06' E 001°40'9 8.9
2016-Jul-26 18:33N 50°59' E 001°31'10 9.8
2016-Jul-26 17:33N 50°50' E 001°25'4811.5
2016-Jul-26 13:25N 50°24' E 000°22'1313.5
2016-Jul-26 12:28N 50°21' E 000°03'1112.2
2016-Jul-26 11:33N 50°25' W 000°14'1513.2
2016-Jul-26 10:26N 50°33' W 000°33'1113.0
2016-Jul-26 09:33N 50°38' W 000°49'1212.3
2016-Jul-26 08:33N 50°45' W 001°05'1211.6
2016-Jul-26 07:33N 50°51' W 001°21'5 4.7
2016-Jul-26 06:27N 50°54' W 001°27'0 0.0
2016-Jul-26 05:32N 50°54' W 001°27'0 0.0
2016-Jul-26 04:29N 50°54' W 001°27'0 0.0
2016-Jul-26 03:31N 50°54' W 001°27'0 0.0
2016-Jul-26 02:28N 50°54' W 001°27'0 0.0
2016-Jul-26 01:31N 50°54' W 001°27'0 0.0
2016-Jul-26 00:30N 50°54' W 001°27'0 0.0
2016-Jul-25 23:33N 50°54' W 001°27'0 0.0
2016-Jul-25 22:32N 50°54' W 001°27'0 0.0
2016-Jul-25 21:32N 50°54' W 001°27'0 0.0
2016-Jul-25 20:28N 50°54' W 001°27'0 0.0
2016-Jul-25 19:31N 50°54' W 001°27'0 0.0
2016-Jul-25 18:31N 50°54' W 001°27'0 0.0
2016-Jul-25 17:33N 50°54' W 001°27'0 0.0
2016-Jul-25 16:33N 50°54' W 001°27'0 0.0
2016-Jul-25 15:32N 50°54' W 001°27'0 0.0
2016-Jul-25 14:29N 50°54' W 001°27'0 0.0
2016-Jul-25 13:22N 50°54' W 001°27'0 0.0
2016-Jul-25 12:28N 50°54' W 001°27'0 0.0
2016-Jul-25 11:31N 50°54' W 001°27'0 0.0
2016-Jul-25 10:18N 50°54' W 001°27'0 0.0
2016-Jul-25 09:30N 50°54' W 001°27'0 0.0
2016-Jul-25 08:29N 50°54' W 001°27'0 0.0
2016-Jul-25 07:29N 50°54' W 001°27'0 0.0
2016-Jul-25 06:31N 50°54' W 001°27'0 0.0
2016-Jul-25 05:28N 50°54' W 001°27'0 0.0
2016-Jul-25 04:33N 50°54' W 001°27'7 6.8
2016-Jul-25 03:33N 50°50' W 001°19'1111.4
2016-Jul-25 02:33N 50°44' W 001°04'9 8.9
2016-Jul-25 01:33N 50°39' W 000°52'7 6.8
2016-Jul-25 00:33N 50°38' W 000°41'1010.0
2016-Jul-24 23:34N 50°35' W 000°26'1110.5
2016-Jul-24 22:33N 50°32' W 000°10'9 9.2
2016-Jul-24 21:34N 50°32' E 000°04'9 9.4
2016-Jul-24 20:33N 50°34' E 000°19'1311.9
2016-Jul-24 19:27N 50°38' E 000°38'1714.1
2016-Jul-24 18:15N 50°47' E 001°01'913.0
2016-Jul-24 17:33N 50°52' E 001°13'1212.4
2016-Jul-24 16:33N 51°01' E 001°27'1111.0
2016-Jul-24 15:33N 51°08' E 001°39'1111.0
2016-Jul-24 14:33N 51°17' E 001°49'1110.9
2016-Jul-24 13:33N 51°26' E 002°01'1111.3
2016-Jul-24 12:33N 51°20' E 002°16'1313.1
2016-Jul-24 11:33N 51°22' E 002°37'1514.9
2016-Jul-24 10:33N 51°24' E 003°01'1615.7
2016-Jul-24 09:33N 51°25' E 003°26'1211.7
2016-Jul-24 08:33N 51°22' E 003°44'1111.3
2016-Jul-24 07:33N 51°24' E 004°02'1010.0
2016-Jul-24 06:34N 51°19' E 004°16'2 2.2
2016-Jul-24 05:33N 51°17' E 004°15'0 0.0
2016-Jul-24 04:33N 51°17' E 004°15'0 0.0
2016-Jul-24 03:32N 51°17' E 004°15'0 0.0
2016-Jul-24 02:32N 51°17' E 004°15'0 0.0
2016-Jul-24 01:32N 51°17' E 004°15'0 0.0
2016-Jul-24 00:28N 51°17' E 004°15'0 0.0
2016-Jul-23 23:28N 51°17' E 004°15'0 0.0
2016-Jul-23 22:33N 51°17' E 004°15'0 0.0
2016-Jul-23 21:33N 51°17' E 004°15'0 0.0
2016-Jul-23 20:32N 51°17' E 004°15'0 0.0
2016-Jul-23 19:32N 51°17' E 004°15'4 3.7
2016-Jul-23 18:34N 51°21' E 004°16'0 0.4
2016-Jul-23 17:28N 51°21' E 004°17'1 1.4
2016-Jul-23 16:33N 51°20' E 004°18'1 0.6
2016-Jul-23 15:32N 51°19' E 004°19'0 0.0
2016-Jul-23 14:32N 51°19' E 004°19'0 0.0
2016-Jul-23 13:31N 51°19' E 004°19'0 0.0
2016-Jul-23 12:31N 51°19' E 004°19'0 0.0
2016-Jul-23 11:33N 51°19' E 004°19'0 0.0
2016-Jul-23 10:33N 51°19' E 004°19'0 0.0
2016-Jul-23 09:33N 51°19' E 004°19'0 0.1
2016-Jul-23 08:30N 51°19' E 004°19'1 0.6
2016-Jul-23 07:31N 51°20' E 004°20'0 0.0
2016-Jul-23 06:28N 51°20' E 004°20'0 0.0
2016-Jul-23 04:33N 51°20' E 004°20'0 0.0
2016-Jul-23 03:29N 51°20' E 004°20'0 0.0
2016-Jul-23 02:29N 51°20' E 004°20'1 1.2
2016-Jul-23 01:33N 51°19' E 004°19'4 4.4
2016-Jul-23 00:32N 51°15' E 004°22'0 0.1
2016-Jul-22 23:32N 51°15' E 004°21'0 0.0
2016-Jul-22 22:32N 51°15' E 004°21'0 0.0
2016-Jul-22 21:31N 51°15' E 004°21'0 0.0
2016-Jul-22 20:31N 51°15' E 004°21'0 0.0
2016-Jul-22 19:33N 51°15' E 004°21'0 0.0
2016-Jul-22 18:30N 51°15' E 004°21'0 0.0
2016-Jul-22 17:33N 51°15' E 004°21'  

Dump ship's entire track history